sensor_id;sensor_type;location;lat;lon;timestamp;P1;durP1;ratioP1;P2;durP2;ratioP2
3916;SDS011;1973;50.518;7.318;2023-11-21T00:02:22;6.10;;;3.80;;
3916;SDS011;1973;50.518;7.318;2023-11-21T00:04:49;6.70;;;3.40;;
3916;SDS011;1973;50.518;7.318;2023-11-21T00:07:15;4.83;;;2.97;;
3916;SDS011;1973;50.518;7.318;2023-11-21T00:09:42;5.37;;;3.10;;
3916;SDS011;1973;50.518;7.318;2023-11-21T00:12:09;4.23;;;2.47;;
3916;SDS011;1973;50.518;7.318;2023-11-21T00:14:36;6.27;;;2.83;;
3916;SDS011;1973;50.518;7.318;2023-11-21T00:17:04;11.07;;;2.90;;
3916;SDS011;1973;50.518;7.318;2023-11-21T00:19:32;8.37;;;3.00;;
3916;SDS011;1973;50.518;7.318;2023-11-21T00:21:59;5.53;;;2.60;;
3916;SDS011;1973;50.518;7.318;2023-11-21T00:24:26;4.80;;;2.77;;
3916;SDS011;1973;50.518;7.318;2023-11-21T00:26:52;4.70;;;2.50;;
3916;SDS011;1973;50.518;7.318;2023-11-21T00:29:19;5.33;;;3.50;;
3916;SDS011;1973;50.518;7.318;2023-11-21T00:31:46;3.70;;;3.13;;
3916;SDS011;1973;50.518;7.318;2023-11-21T00:34:12;3.40;;;2.40;;
3916;SDS011;1973;50.518;7.318;2023-11-21T00:36:39;8.20;;;3.10;;
3916;SDS011;1973;50.518;7.318;2023-11-21T00:39:06;9.37;;;4.20;;
3916;SDS011;1973;50.518;7.318;2023-11-21T00:41:34;4.97;;;3.53;;
3916;SDS011;1973;50.518;7.318;2023-11-21T00:44:03;7.70;;;4.07;;
3916;SDS011;1973;50.518;7.318;2023-11-21T00:46:29;5.90;;;3.63;;
3916;SDS011;1973;50.518;7.318;2023-11-21T00:48:56;5.20;;;3.30;;
3916;SDS011;1973;50.518;7.318;2023-11-21T00:51:23;7.90;;;5.93;;
3916;SDS011;1973;50.518;7.318;2023-11-21T00:53:50;11.07;;;7.63;;
3916;SDS011;1973;50.518;7.318;2023-11-21T00:56:17;9.97;;;7.67;;
3916;SDS011;1973;50.518;7.318;2023-11-21T00:58:43;12.57;;;7.20;;
3916;SDS011;1973;50.518;7.318;2023-11-21T01:01:12;10.20;;;7.40;;
3916;SDS011;1973;50.518;7.318;2023-11-21T01:03:39;9.17;;;8.10;;
3916;SDS011;1973;50.518;7.318;2023-11-21T01:06:06;9.80;;;6.70;;
3916;SDS011;1973;50.518;7.318;2023-11-21T01:08:33;10.63;;;8.10;;
3916;SDS011;1973;50.518;7.318;2023-11-21T01:10:59;10.70;;;8.07;;
3916;SDS011;1973;50.518;7.318;2023-11-21T01:13:26;8.50;;;7.40;;
3916;SDS011;1973;50.518;7.318;2023-11-21T01:15:56;7.97;;;6.97;;
3916;SDS011;1973;50.518;7.318;2023-11-21T01:18:22;10.10;;;6.27;;
3916;SDS011;1973;50.518;7.318;2023-11-21T01:20:51;11.43;;;5.70;;
3916;SDS011;1973;50.518;7.318;2023-11-21T01:23:21;6.80;;;5.07;;
3916;SDS011;1973;50.518;7.318;2023-11-21T01:25:48;7.60;;;4.90;;
3916;SDS011;1973;50.518;7.318;2023-11-21T01:28:15;4.80;;;4.30;;
3916;SDS011;1973;50.518;7.318;2023-11-21T01:30:42;8.13;;;5.60;;
3916;SDS011;1973;50.518;7.318;2023-11-21T01:33:08;12.53;;;8.00;;
3916;SDS011;1973;50.518;7.318;2023-11-21T01:35:35;17.23;;;9.97;;
3916;SDS011;1973;50.518;7.318;2023-11-21T01:38:02;14.30;;;9.93;;
3916;SDS011;1973;50.518;7.318;2023-11-21T01:40:28;12.00;;;8.73;;
3916;SDS011;1973;50.518;7.318;2023-11-21T01:42:56;14.80;;;9.67;;
3916;SDS011;1973;50.518;7.318;2023-11-21T01:45:24;14.63;;;9.57;;
3916;SDS011;1973;50.518;7.318;2023-11-21T01:47:52;17.53;;;10.40;;
3916;SDS011;1973;50.518;7.318;2023-11-21T01:50:23;17.03;;;9.63;;
3916;SDS011;1973;50.518;7.318;2023-11-21T01:52:51;14.50;;;8.97;;
3916;SDS011;1973;50.518;7.318;2023-11-21T01:55:19;13.27;;;9.37;;
3916;SDS011;1973;50.518;7.318;2023-11-21T01:57:54;13.00;;;9.10;;
3916;SDS011;1973;50.518;7.318;2023-11-21T02:00:21;13.80;;;10.33;;
3916;SDS011;1973;50.518;7.318;2023-11-21T02:02:49;13.10;;;10.10;;
3916;SDS011;1973;50.518;7.318;2023-11-21T02:05:16;13.73;;;11.20;;
3916;SDS011;1973;50.518;7.318;2023-11-21T02:07:45;18.33;;;10.53;;
3916;SDS011;1973;50.518;7.318;2023-11-21T02:10:14;14.77;;;10.90;;
3916;SDS011;1973;50.518;7.318;2023-11-21T02:12:41;13.00;;;9.87;;
3916;SDS011;1973;50.518;7.318;2023-11-21T02:15:09;13.13;;;10.97;;
3916;SDS011;1973;50.518;7.318;2023-11-21T02:17:41;15.10;;;11.10;;
3916;SDS011;1973;50.518;7.318;2023-11-21T02:20:10;13.00;;;9.03;;
3916;SDS011;1973;50.518;7.318;2023-11-21T02:22:41;14.47;;;9.33;;
3916;SDS011;1973;50.518;7.318;2023-11-21T02:25:09;19.80;;;11.73;;
3916;SDS011;1973;50.518;7.318;2023-11-21T02:27:36;22.00;;;13.10;;
3916;SDS011;1973;50.518;7.318;2023-11-21T02:30:03;19.80;;;13.97;;
3916;SDS011;1973;50.518;7.318;2023-11-21T02:32:31;18.90;;;13.87;;
3916;SDS011;1973;50.518;7.318;2023-11-21T02:34:58;21.17;;;13.63;;
3916;SDS011;1973;50.518;7.318;2023-11-21T02:37:27;22.33;;;15.03;;
3916;SDS011;1973;50.518;7.318;2023-11-21T02:39:53;20.97;;;14.53;;
3916;SDS011;1973;50.518;7.318;2023-11-21T02:42:20;21.10;;;14.90;;
3916;SDS011;1973;50.518;7.318;2023-11-21T02:44:46;20.80;;;15.37;;
3916;SDS011;1973;50.518;7.318;2023-11-21T02:47:13;24.03;;;17.40;;
3916;SDS011;1973;50.518;7.318;2023-11-21T02:49:40;23.07;;;16.73;;
3916;SDS011;1973;50.518;7.318;2023-11-21T02:52:07;25.10;;;15.77;;
3916;SDS011;1973;50.518;7.318;2023-11-21T02:54:33;20.10;;;15.97;;
3916;SDS011;1973;50.518;7.318;2023-11-21T02:57:02;22.00;;;15.70;;
3916;SDS011;1973;50.518;7.318;2023-11-21T02:59:29;22.80;;;16.37;;
3916;SDS011;1973;50.518;7.318;2023-11-21T03:01:55;20.57;;;16.00;;
3916;SDS011;1973;50.518;7.318;2023-11-21T03:04:23;21.23;;;16.03;;
3916;SDS011;1973;50.518;7.318;2023-11-21T03:06:50;19.87;;;16.23;;
3916;SDS011;1973;50.518;7.318;2023-11-21T03:09:16;21.50;;;15.53;;
3916;SDS011;1973;50.518;7.318;2023-11-21T03:11:43;17.47;;;14.13;;
3916;SDS011;1973;50.518;7.318;2023-11-21T03:14:09;19.50;;;14.53;;
3916;SDS011;1973;50.518;7.318;2023-11-21T03:16:37;17.73;;;15.20;;
3916;SDS011;1973;50.518;7.318;2023-11-21T03:19:04;20.30;;;15.90;;
3916;SDS011;1973;50.518;7.318;2023-11-21T03:21:31;20.53;;;14.73;;
3916;SDS011;1973;50.518;7.318;2023-11-21T03:23:57;20.23;;;15.90;;
3916;SDS011;1973;50.518;7.318;2023-11-21T03:26:26;20.20;;;15.47;;
3916;SDS011;1973;50.518;7.318;2023-11-21T03:28:52;18.27;;;14.27;;
3916;SDS011;1973;50.518;7.318;2023-11-21T03:31:20;20.13;;;15.43;;
3916;SDS011;1973;50.518;7.318;2023-11-21T03:33:47;18.20;;;14.60;;
3916;SDS011;1973;50.518;7.318;2023-11-21T03:36:14;18.47;;;15.03;;
3916;SDS011;1973;50.518;7.318;2023-11-21T03:38:44;16.53;;;13.40;;
3916;SDS011;1973;50.518;7.318;2023-11-21T03:41:10;16.10;;;13.20;;
3916;SDS011;1973;50.518;7.318;2023-11-21T03:43:37;17.30;;;13.37;;
3916;SDS011;1973;50.518;7.318;2023-11-21T03:46:04;16.53;;;13.30;;
3916;SDS011;1973;50.518;7.318;2023-11-21T03:48:30;15.47;;;12.77;;
3916;SDS011;1973;50.518;7.318;2023-11-21T03:50:58;19.77;;;14.03;;
3916;SDS011;1973;50.518;7.318;2023-11-21T03:53:24;17.20;;;13.80;;
3916;SDS011;1973;50.518;7.318;2023-11-21T03:55:51;17.23;;;13.30;;
3916;SDS011;1973;50.518;7.318;2023-11-21T03:58:18;20.37;;;14.03;;
3916;SDS011;1973;50.518;7.318;2023-11-21T04:00:44;17.17;;;13.20;;
3916;SDS011;1973;50.518;7.318;2023-11-21T04:03:12;16.50;;;13.60;;
3916;SDS011;1973;50.518;7.318;2023-11-21T04:05:40;16.43;;;12.60;;
3916;SDS011;1973;50.518;7.318;2023-11-21T04:08:07;15.43;;;12.27;;
3916;SDS011;1973;50.518;7.318;2023-11-21T04:10:34;13.40;;;11.90;;
3916;SDS011;1973;50.518;7.318;2023-11-21T04:13:01;15.20;;;12.37;;
3916;SDS011;1973;50.518;7.318;2023-11-21T04:15:28;18.37;;;11.80;;
3916;SDS011;1973;50.518;7.318;2023-11-21T04:17:54;13.67;;;11.60;;
3916;SDS011;1973;50.518;7.318;2023-11-21T04:20:22;15.60;;;11.60;;
3916;SDS011;1973;50.518;7.318;2023-11-21T04:22:49;17.70;;;12.97;;
3916;SDS011;1973;50.518;7.318;2023-11-21T04:25:16;15.23;;;12.37;;
3916;SDS011;1973;50.518;7.318;2023-11-21T04:27:43;19.13;;;13.40;;
3916;SDS011;1973;50.518;7.318;2023-11-21T04:30:11;16.90;;;12.83;;
3916;SDS011;1973;50.518;7.318;2023-11-21T04:32:39;15.93;;;12.53;;
3916;SDS011;1973;50.518;7.318;2023-11-21T04:35:06;18.00;;;14.30;;
3916;SDS011;1973;50.518;7.318;2023-11-21T04:37:32;20.07;;;15.90;;
3916;SDS011;1973;50.518;7.318;2023-11-21T04:39:59;19.23;;;14.63;;
3916;SDS011;1973;50.518;7.318;2023-11-21T04:42:26;17.47;;;14.70;;
3916;SDS011;1973;50.518;7.318;2023-11-21T04:44:52;19.80;;;16.17;;
3916;SDS011;1973;50.518;7.318;2023-11-21T04:47:19;22.80;;;15.93;;
3916;SDS011;1973;50.518;7.318;2023-11-21T04:49:46;25.47;;;18.27;;
3916;SDS011;1973;50.518;7.318;2023-11-21T04:52:16;21.47;;;17.10;;
3916;SDS011;1973;50.518;7.318;2023-11-21T04:54:42;21.33;;;17.57;;
3916;SDS011;1973;50.518;7.318;2023-11-21T04:57:09;22.00;;;16.70;;
3916;SDS011;1973;50.518;7.318;2023-11-21T04:59:35;24.80;;;18.10;;
3916;SDS011;1973;50.518;7.318;2023-11-21T05:02:02;25.83;;;17.80;;
3916;SDS011;1973;50.518;7.318;2023-11-21T05:04:29;21.90;;;17.50;;
3916;SDS011;1973;50.518;7.318;2023-11-21T05:06:56;23.47;;;18.00;;
3916;SDS011;1973;50.518;7.318;2023-11-21T05:09:22;23.70;;;18.57;;
3916;SDS011;1973;50.518;7.318;2023-11-21T05:11:49;22.97;;;18.23;;
3916;SDS011;1973;50.518;7.318;2023-11-21T05:14:16;20.93;;;17.13;;
3916;SDS011;1973;50.518;7.318;2023-11-21T05:16:43;27.47;;;18.30;;
3916;SDS011;1973;50.518;7.318;2023-11-21T05:19:10;24.53;;;18.20;;
3916;SDS011;1973;50.518;7.318;2023-11-21T05:21:39;22.17;;;17.80;;
3916;SDS011;1973;50.518;7.318;2023-11-21T05:24:06;23.23;;;18.73;;
3916;SDS011;1973;50.518;7.318;2023-11-21T05:26:33;21.07;;;17.83;;
3916;SDS011;1973;50.518;7.318;2023-11-21T05:28:59;22.70;;;18.40;;
3916;SDS011;1973;50.518;7.318;2023-11-21T05:31:26;31.13;;;19.90;;
3916;SDS011;1973;50.518;7.318;2023-11-21T05:33:53;26.43;;;19.40;;
3916;SDS011;1973;50.518;7.318;2023-11-21T05:36:19;22.50;;;18.50;;
3916;SDS011;1973;50.518;7.318;2023-11-21T05:38:46;24.73;;;18.17;;
3916;SDS011;1973;50.518;7.318;2023-11-21T05:41:12;20.90;;;17.50;;
3916;SDS011;1973;50.518;7.318;2023-11-21T05:43:39;31.50;;;18.87;;
3916;SDS011;1973;50.518;7.318;2023-11-21T05:46:06;24.27;;;18.77;;
3916;SDS011;1973;50.518;7.318;2023-11-21T05:48:33;27.33;;;20.73;;
3916;SDS011;1973;50.518;7.318;2023-11-21T05:51:00;25.60;;;18.10;;
3916;SDS011;1973;50.518;7.318;2023-11-21T05:53:28;22.13;;;16.90;;
3916;SDS011;1973;50.518;7.318;2023-11-21T05:55:55;20.40;;;15.70;;
3916;SDS011;1973;50.518;7.318;2023-11-21T05:58:22;19.30;;;15.00;;
3916;SDS011;1973;50.518;7.318;2023-11-21T06:00:49;20.60;;;14.97;;
3916;SDS011;1973;50.518;7.318;2023-11-21T06:03:15;20.13;;;15.30;;
3916;SDS011;1973;50.518;7.318;2023-11-21T06:05:43;23.27;;;16.27;;
3916;SDS011;1973;50.518;7.318;2023-11-21T06:08:10;23.10;;;18.30;;
3916;SDS011;1973;50.518;7.318;2023-11-21T06:10:36;28.47;;;17.10;;
3916;SDS011;1973;50.518;7.318;2023-11-21T06:13:03;23.90;;;18.60;;
3916;SDS011;1973;50.518;7.318;2023-11-21T06:15:30;26.67;;;18.50;;
3916;SDS011;1973;50.518;7.318;2023-11-21T06:17:56;21.97;;;17.90;;
3916;SDS011;1973;50.518;7.318;2023-11-21T06:20:23;24.43;;;17.77;;
3916;SDS011;1973;50.518;7.318;2023-11-21T06:22:50;29.17;;;19.93;;
3916;SDS011;1973;50.518;7.318;2023-11-21T06:25:17;31.80;;;22.00;;
3916;SDS011;1973;50.518;7.318;2023-11-21T06:27:45;26.83;;;20.77;;
3916;SDS011;1973;50.518;7.318;2023-11-21T06:30:14;30.77;;;22.80;;
3916;SDS011;1973;50.518;7.318;2023-11-21T06:32:41;30.03;;;23.13;;
3916;SDS011;1973;50.518;7.318;2023-11-21T06:35:12;36.10;;;21.40;;
3916;SDS011;1973;50.518;7.318;2023-11-21T06:37:39;31.50;;;21.60;;
3916;SDS011;1973;50.518;7.318;2023-11-21T06:40:06;30.20;;;24.10;;
3916;SDS011;1973;50.518;7.318;2023-11-21T06:42:33;31.93;;;23.13;;
3916;SDS011;1973;50.518;7.318;2023-11-21T06:45:00;32.80;;;22.50;;
3916;SDS011;1973;50.518;7.318;2023-11-21T06:47:30;28.93;;;20.80;;
3916;SDS011;1973;50.518;7.318;2023-11-21T06:49:57;28.87;;;20.47;;
3916;SDS011;1973;50.518;7.318;2023-11-21T06:52:24;29.00;;;20.70;;
3916;SDS011;1973;50.518;7.318;2023-11-21T06:54:50;29.23;;;21.37;;
3916;SDS011;1973;50.518;7.318;2023-11-21T06:57:17;26.30;;;20.40;;
3916;SDS011;1973;50.518;7.318;2023-11-21T06:59:44;26.80;;;20.20;;
3916;SDS011;1973;50.518;7.318;2023-11-21T07:02:10;29.30;;;22.50;;
3916;SDS011;1973;50.518;7.318;2023-11-21T07:04:37;30.30;;;21.33;;
3916;SDS011;1973;50.518;7.318;2023-11-21T07:07:04;30.87;;;22.80;;
3916;SDS011;1973;50.518;7.318;2023-11-21T07:09:33;29.03;;;21.90;;
3916;SDS011;1973;50.518;7.318;2023-11-21T07:11:59;30.70;;;21.80;;
3916;SDS011;1973;50.518;7.318;2023-11-21T07:14:26;29.00;;;20.83;;
3916;SDS011;1973;50.518;7.318;2023-11-21T07:16:52;30.97;;;21.00;;
3916;SDS011;1973;50.518;7.318;2023-11-21T07:19:19;34.37;;;23.97;;
3916;SDS011;1973;50.518;7.318;2023-11-21T07:21:46;34.60;;;23.70;;
3916;SDS011;1973;50.518;7.318;2023-11-21T07:24:13;35.27;;;24.80;;
3916;SDS011;1973;50.518;7.318;2023-11-21T07:26:39;33.17;;;25.27;;
3916;SDS011;1973;50.518;7.318;2023-11-21T07:29:06;38.57;;;26.03;;
3916;SDS011;1973;50.518;7.318;2023-11-21T07:31:32;37.60;;;25.63;;
3916;SDS011;1973;50.518;7.318;2023-11-21T07:34:02;38.00;;;25.67;;
3916;SDS011;1973;50.518;7.318;2023-11-21T07:36:28;33.17;;;23.57;;
3916;SDS011;1973;50.518;7.318;2023-11-21T07:38:55;33.37;;;24.70;;
3916;SDS011;1973;50.518;7.318;2023-11-21T07:41:21;37.90;;;24.63;;
3916;SDS011;1973;50.518;7.318;2023-11-21T07:43:56;29.07;;;22.80;;
3916;SDS011;1973;50.518;7.318;2023-11-21T07:46:23;35.13;;;24.40;;
3916;SDS011;1973;50.518;7.318;2023-11-21T07:48:50;34.07;;;22.90;;
3916;SDS011;1973;50.518;7.318;2023-11-21T07:51:18;30.60;;;24.03;;
3916;SDS011;1973;50.518;7.318;2023-11-21T07:53:45;30.60;;;22.43;;
3916;SDS011;1973;50.518;7.318;2023-11-21T07:56:12;36.57;;;25.27;;
3916;SDS011;1973;50.518;7.318;2023-11-21T07:58:39;37.33;;;24.67;;
3916;SDS011;1973;50.518;7.318;2023-11-21T08:01:06;38.97;;;24.80;;
3916;SDS011;1973;50.518;7.318;2023-11-21T08:03:34;34.80;;;24.83;;
3916;SDS011;1973;50.518;7.318;2023-11-21T08:06:01;39.23;;;24.33;;
3916;SDS011;1973;50.518;7.318;2023-11-21T08:08:29;33.60;;;24.03;;
3916;SDS011;1973;50.518;7.318;2023-11-21T08:10:56;35.40;;;23.57;;
3916;SDS011;1973;50.518;7.318;2023-11-21T08:13:26;34.10;;;22.73;;
3916;SDS011;1973;50.518;7.318;2023-11-21T08:15:55;30.43;;;22.00;;
3916;SDS011;1973;50.518;7.318;2023-11-21T08:18:22;31.90;;;22.27;;
3916;SDS011;1973;50.518;7.318;2023-11-21T08:20:49;36.07;;;22.83;;
3916;SDS011;1973;50.518;7.318;2023-11-21T08:23:16;30.30;;;21.77;;
3916;SDS011;1973;50.518;7.318;2023-11-21T08:25:46;35.63;;;22.63;;
3916;SDS011;1973;50.518;7.318;2023-11-21T08:28:12;35.03;;;22.20;;
3916;SDS011;1973;50.518;7.318;2023-11-21T08:30:42;36.87;;;22.13;;
3916;SDS011;1973;50.518;7.318;2023-11-21T08:33:09;31.40;;;22.13;;
3916;SDS011;1973;50.518;7.318;2023-11-21T08:35:37;32.50;;;22.20;;
3916;SDS011;1973;50.518;7.318;2023-11-21T08:38:04;34.00;;;21.30;;
3916;SDS011;1973;50.518;7.318;2023-11-21T08:40:30;32.77;;;21.60;;
3916;SDS011;1973;50.518;7.318;2023-11-21T08:42:57;31.77;;;19.67;;
3916;SDS011;1973;50.518;7.318;2023-11-21T08:45:25;34.60;;;21.77;;
3916;SDS011;1973;50.518;7.318;2023-11-21T08:47:55;34.30;;;20.83;;
3916;SDS011;1973;50.518;7.318;2023-11-21T08:50:21;33.27;;;22.07;;
3916;SDS011;1973;50.518;7.318;2023-11-21T08:52:48;34.93;;;19.93;;
3916;SDS011;1973;50.518;7.318;2023-11-21T08:55:15;30.63;;;19.20;;
3916;SDS011;1973;50.518;7.318;2023-11-21T08:57:43;30.83;;;20.80;;
3916;SDS011;1973;50.518;7.318;2023-11-21T09:00:10;29.30;;;19.27;;
3916;SDS011;1973;50.518;7.318;2023-11-21T09:02:38;29.47;;;18.97;;
3916;SDS011;1973;50.518;7.318;2023-11-21T09:05:09;29.03;;;17.33;;
3916;SDS011;1973;50.518;7.318;2023-11-21T09:07:36;26.97;;;17.30;;
3916;SDS011;1973;50.518;7.318;2023-11-21T09:10:04;33.20;;;18.43;;
3916;SDS011;1973;50.518;7.318;2023-11-21T09:12:34;29.50;;;17.40;;
3916;SDS011;1973;50.518;7.318;2023-11-21T09:15:04;32.70;;;17.07;;
3916;SDS011;1973;50.518;7.318;2023-11-21T09:17:32;27.90;;;16.67;;
3916;SDS011;1973;50.518;7.318;2023-11-21T09:20:01;23.43;;;15.77;;
3916;SDS011;1973;50.518;7.318;2023-11-21T09:22:30;31.70;;;16.80;;
3916;SDS011;1973;50.518;7.318;2023-11-21T09:24:58;25.90;;;16.33;;
3916;SDS011;1973;50.518;7.318;2023-11-21T09:27:24;32.87;;;18.80;;
3916;SDS011;1973;50.518;7.318;2023-11-21T09:29:54;25.93;;;16.90;;
3916;SDS011;1973;50.518;7.318;2023-11-21T09:32:21;23.70;;;16.43;;
3916;SDS011;1973;50.518;7.318;2023-11-21T09:34:48;25.83;;;16.23;;
3916;SDS011;1973;50.518;7.318;2023-11-21T09:37:16;26.63;;;15.83;;
3916;SDS011;1973;50.518;7.318;2023-11-21T09:39:42;27.10;;;17.90;;
3916;SDS011;1973;50.518;7.318;2023-11-21T09:42:13;22.30;;;16.30;;
3916;SDS011;1973;50.518;7.318;2023-11-21T09:47:44;31.60;;;18.40;;
3916;SDS011;1973;50.518;7.318;2023-11-21T09:50:13;32.43;;;18.20;;
3916;SDS011;1973;50.518;7.318;2023-11-21T09:55:50;27.57;;;16.20;;
3916;SDS011;1973;50.518;7.318;2023-11-21T09:58:19;26.70;;;16.83;;
3916;SDS011;1973;50.518;7.318;2023-11-21T10:00:48;30.10;;;18.17;;
3916;SDS011;1973;50.518;7.318;2023-11-21T10:03:18;27.90;;;18.07;;
3916;SDS011;1973;50.518;7.318;2023-11-21T10:05:45;34.27;;;19.10;;
3916;SDS011;1973;50.518;7.318;2023-11-21T10:08:14;31.70;;;17.77;;
3916;SDS011;1973;50.518;7.318;2023-11-21T10:10:44;31.07;;;18.50;;
3916;SDS011;1973;50.518;7.318;2023-11-21T10:13:13;30.70;;;17.80;;
3916;SDS011;1973;50.518;7.318;2023-11-21T10:15:43;25.53;;;17.43;;
3916;SDS011;1973;50.518;7.318;2023-11-21T10:18:15;27.03;;;16.97;;
3916;SDS011;1973;50.518;7.318;2023-11-21T10:20:42;26.50;;;18.00;;
3916;SDS011;1973;50.518;7.318;2023-11-21T10:23:09;32.00;;;17.60;;
3916;SDS011;1973;50.518;7.318;2023-11-21T10:25:37;29.50;;;16.93;;
3916;SDS011;1973;50.518;7.318;2023-11-21T10:28:04;28.50;;;17.37;;
3916;SDS011;1973;50.518;7.318;2023-11-21T10:30:37;30.53;;;17.07;;
3916;SDS011;1973;50.518;7.318;2023-11-21T10:33:05;31.00;;;18.50;;
3916;SDS011;1973;50.518;7.318;2023-11-21T10:38:08;31.80;;;16.10;;
3916;SDS011;1973;50.518;7.318;2023-11-21T10:40:40;27.93;;;17.70;;
3916;SDS011;1973;50.518;7.318;2023-11-21T10:43:08;27.07;;;16.10;;
3916;SDS011;1973;50.518;7.318;2023-11-21T10:45:39;28.63;;;17.13;;
3916;SDS011;1973;50.518;7.318;2023-11-21T10:48:06;27.87;;;17.73;;
3916;SDS011;1973;50.518;7.318;2023-11-21T10:50:43;30.30;;;17.17;;
3916;SDS011;1973;50.518;7.318;2023-11-21T10:53:11;25.70;;;17.50;;
3916;SDS011;1973;50.518;7.318;2023-11-21T10:55:42;30.17;;;17.90;;
3916;SDS011;1973;50.518;7.318;2023-11-21T10:58:11;27.47;;;17.13;;
3916;SDS011;1973;50.518;7.318;2023-11-21T11:00:40;31.80;;;18.27;;
3916;SDS011;1973;50.518;7.318;2023-11-21T11:03:07;27.73;;;16.27;;
3916;SDS011;1973;50.518;7.318;2023-11-21T11:05:42;27.90;;;16.73;;
3916;SDS011;1973;50.518;7.318;2023-11-21T11:08:19;23.00;;;16.10;;
3916;SDS011;1973;50.518;7.318;2023-11-21T11:10:52;27.60;;;15.90;;
3916;SDS011;1973;50.518;7.318;2023-11-21T11:13:19;24.27;;;17.07;;
3916;SDS011;1973;50.518;7.318;2023-11-21T11:15:49;25.13;;;16.67;;
3916;SDS011;1973;50.518;7.318;2023-11-21T11:18:16;27.33;;;16.43;;
3916;SDS011;1973;50.518;7.318;2023-11-21T11:20:43;29.70;;;17.23;;
3916;SDS011;1973;50.518;7.318;2023-11-21T11:26:09;29.50;;;18.47;;
3916;SDS011;1973;50.518;7.318;2023-11-21T11:28:52;28.20;;;17.07;;
3916;SDS011;1973;50.518;7.318;2023-11-21T11:34:08;32.40;;;18.90;;
3916;SDS011;1973;50.518;7.318;2023-11-21T11:36:48;31.87;;;18.90;;
3916;SDS011;1973;50.518;7.318;2023-11-21T11:41:58;30.13;;;18.60;;
3916;SDS011;1973;50.518;7.318;2023-11-21T11:47:13;24.53;;;17.00;;
3916;SDS011;1973;50.518;7.318;2023-11-21T11:52:35;32.40;;;19.20;;
3916;SDS011;1973;50.518;7.318;2023-11-21T11:55:07;23.60;;;17.37;;
3916;SDS011;1973;50.518;7.318;2023-11-21T11:57:38;27.67;;;17.23;;
3916;SDS011;1973;50.518;7.318;2023-11-21T12:02:57;29.83;;;16.87;;
3916;SDS011;1973;50.518;7.318;2023-11-21T12:05:32;27.73;;;16.40;;
3916;SDS011;1973;50.518;7.318;2023-11-21T12:08:02;24.13;;;16.60;;
3916;SDS011;1973;50.518;7.318;2023-11-21T12:10:30;20.60;;;15.53;;
3916;SDS011;1973;50.518;7.318;2023-11-21T12:12:59;26.93;;;17.50;;
3916;SDS011;1973;50.518;7.318;2023-11-21T12:15:34;24.47;;;16.43;;
3916;SDS011;1973;50.518;7.318;2023-11-21T12:18:01;23.87;;;16.10;;
3916;SDS011;1973;50.518;7.318;2023-11-21T12:20:28;25.03;;;16.87;;
3916;SDS011;1973;50.518;7.318;2023-11-21T12:22:56;24.50;;;17.17;;
3916;SDS011;1973;50.518;7.318;2023-11-21T12:25:30;30.03;;;18.23;;
3916;SDS011;1973;50.518;7.318;2023-11-21T12:28:03;26.13;;;17.07;;
3916;SDS011;1973;50.518;7.318;2023-11-21T12:30:30;26.63;;;17.20;;
3916;SDS011;1973;50.518;7.318;2023-11-21T12:32:58;30.63;;;17.43;;
3916;SDS011;1973;50.518;7.318;2023-11-21T12:35:30;40.30;;;17.80;;
3916;SDS011;1973;50.518;7.318;2023-11-21T12:38:00;23.90;;;16.80;;
3916;SDS011;1973;50.518;7.318;2023-11-21T12:40:32;22.30;;;15.73;;
3916;SDS011;1973;50.518;7.318;2023-11-21T12:42:59;23.20;;;15.33;;
3916;SDS011;1973;50.518;7.318;2023-11-21T12:45:28;29.00;;;17.57;;
3916;SDS011;1973;50.518;7.318;2023-11-21T12:47:56;26.53;;;16.40;;
3916;SDS011;1973;50.518;7.318;2023-11-21T12:50:26;27.20;;;17.43;;
3916;SDS011;1973;50.518;7.318;2023-11-21T12:52:59;34.50;;;19.70;;
3916;SDS011;1973;50.518;7.318;2023-11-21T12:55:29;24.23;;;16.90;;
3916;SDS011;1973;50.518;7.318;2023-11-21T12:57:56;24.53;;;18.53;;
3916;SDS011;1973;50.518;7.318;2023-11-21T13:00:33;25.40;;;18.53;;
3916;SDS011;1973;50.518;7.318;2023-11-21T13:03:06;21.93;;;16.30;;
3916;SDS011;1973;50.518;7.318;2023-11-21T13:05:34;22.50;;;16.23;;
3916;SDS011;1973;50.518;7.318;2023-11-21T13:08:05;24.80;;;17.20;;
3916;SDS011;1973;50.518;7.318;2023-11-21T13:10:35;29.30;;;17.80;;
3916;SDS011;1973;50.518;7.318;2023-11-21T13:13:05;24.13;;;17.10;;
3916;SDS011;1973;50.518;7.318;2023-11-21T13:15:46;28.00;;;17.50;;
3916;SDS011;1973;50.518;7.318;2023-11-21T13:18:14;25.20;;;17.57;;
3916;SDS011;1973;50.518;7.318;2023-11-21T13:20:42;27.80;;;18.37;;
3916;SDS011;1973;50.518;7.318;2023-11-21T13:23:10;32.40;;;19.53;;
3916;SDS011;1973;50.518;7.318;2023-11-21T13:25:42;24.43;;;18.80;;
3916;SDS011;1973;50.518;7.318;2023-11-21T13:28:19;25.87;;;19.50;;
3916;SDS011;1973;50.518;7.318;2023-11-21T13:30:48;29.50;;;19.90;;
3916;SDS011;1973;50.518;7.318;2023-11-21T13:33:14;28.60;;;20.00;;
3916;SDS011;1973;50.518;7.318;2023-11-21T13:35:47;31.20;;;18.80;;
3916;SDS011;1973;50.518;7.318;2023-11-21T13:38:16;32.80;;;19.27;;
3916;SDS011;1973;50.518;7.318;2023-11-21T13:40:47;27.07;;;18.83;;
3916;SDS011;1973;50.518;7.318;2023-11-21T13:43:16;30.93;;;19.57;;
3916;SDS011;1973;50.518;7.318;2023-11-21T13:45:48;34.00;;;19.40;;
3916;SDS011;1973;50.518;7.318;2023-11-21T13:48:25;28.80;;;19.30;;
3916;SDS011;1973;50.518;7.318;2023-11-21T13:50:57;32.13;;;19.90;;
3916;SDS011;1973;50.518;7.318;2023-11-21T13:53:27;35.23;;;18.90;;
3916;SDS011;1973;50.518;7.318;2023-11-21T13:55:54;29.90;;;19.47;;
3916;SDS011;1973;50.518;7.318;2023-11-21T13:58:21;26.63;;;17.10;;
3916;SDS011;1973;50.518;7.318;2023-11-21T14:01:06;26.67;;;19.60;;
3916;SDS011;1973;50.518;7.318;2023-11-21T14:03:43;27.53;;;17.97;;
3916;SDS011;1973;50.518;7.318;2023-11-21T14:06:18;28.10;;;17.97;;
3916;SDS011;1973;50.518;7.318;2023-11-21T14:08:50;26.87;;;18.60;;
3916;SDS011;1973;50.518;7.318;2023-11-21T14:11:17;28.63;;;18.67;;
3916;SDS011;1973;50.518;7.318;2023-11-21T14:13:45;30.50;;;18.57;;
3916;SDS011;1973;50.518;7.318;2023-11-21T14:16:15;25.67;;;17.07;;
3916;SDS011;1973;50.518;7.318;2023-11-21T14:18:43;29.67;;;18.70;;
3916;SDS011;1973;50.518;7.318;2023-11-21T14:21:21;28.53;;;17.80;;
3916;SDS011;1973;50.518;7.318;2023-11-21T14:23:48;27.50;;;19.50;;
3916;SDS011;1973;50.518;7.318;2023-11-21T14:26:15;30.57;;;18.20;;
3916;SDS011;1973;50.518;7.318;2023-11-21T14:28:43;26.90;;;17.73;;
3916;SDS011;1973;50.518;7.318;2023-11-21T14:31:09;29.50;;;17.70;;
3916;SDS011;1973;50.518;7.318;2023-11-21T14:33:41;27.67;;;16.97;;
3916;SDS011;1973;50.518;7.318;2023-11-21T14:36:08;28.87;;;17.70;;
3916;SDS011;1973;50.518;7.318;2023-11-21T14:38:36;24.73;;;17.57;;
3916;SDS011;1973;50.518;7.318;2023-11-21T14:41:06;23.90;;;16.83;;
3916;SDS011;1973;50.518;7.318;2023-11-21T14:43:37;32.47;;;18.50;;
3916;SDS011;1973;50.518;7.318;2023-11-21T14:46:05;28.93;;;17.97;;
3916;SDS011;1973;50.518;7.318;2023-11-21T14:48:40;33.80;;;18.80;;
3916;SDS011;1973;50.518;7.318;2023-11-21T14:51:09;25.53;;;15.90;;
3916;SDS011;1973;50.518;7.318;2023-11-21T14:53:38;26.80;;;17.80;;
3916;SDS011;1973;50.518;7.318;2023-11-21T14:56:20;26.37;;;17.50;;
3916;SDS011;1973;50.518;7.318;2023-11-21T14:58:53;30.80;;;18.43;;
3916;SDS011;1973;50.518;7.318;2023-11-21T15:01:22;26.00;;;17.90;;
3916;SDS011;1973;50.518;7.318;2023-11-21T15:04:09;28.93;;;19.17;;
3916;SDS011;1973;50.518;7.318;2023-11-21T15:06:41;29.83;;;18.57;;
3916;SDS011;1973;50.518;7.318;2023-11-21T15:09:09;29.40;;;17.53;;
3916;SDS011;1973;50.518;7.318;2023-11-21T15:11:35;32.37;;;19.57;;
3916;SDS011;1973;50.518;7.318;2023-11-21T15:14:04;36.90;;;19.43;;
3916;SDS011;1973;50.518;7.318;2023-11-21T15:16:37;29.93;;;19.43;;
3916;SDS011;1973;50.518;7.318;2023-11-21T15:19:07;29.23;;;18.00;;
3916;SDS011;1973;50.518;7.318;2023-11-21T15:21:36;29.83;;;18.07;;
3916;SDS011;1973;50.518;7.318;2023-11-21T15:24:03;28.27;;;17.17;;